Lakewood, Pennsylvania
Current Conditions -  °F | °C
As of 5:15 PM on Sunday 25 Jan 2015 (Local Time) from KMSV Reporting Station
Clear Clear  
Wind Chill: 11°   Ceiling: Unl
Heat Index: 23°   Visibility: 10mi
Dew Point:   Wind: 13mph
Humidity: 50%   Direction: 300°WNW
Pressure: 29.82"   Gusts: 16mph
Location:  41.85°N, 75.38°W
Report Text: KMSV 252215Z AUTO 30011G14KT 10SM CLR M05/M14 A2982 RMK AO1
Loading
Personal Weather Stations






























Interactive Weather Map New forecast layout! Learn more

10-Day Weather Forecast

Advertisements
Track Severe Weather on mobile